createdAt,value
2017-08-12T00:00:02.445Z,16.74
2017-08-12T00:00:30.351Z,16.77
2017-08-12T00:00:58.481Z,16.76
2017-08-12T00:01:26.559Z,16.8
2017-08-12T00:01:54.632Z,16.73
2017-08-12T00:02:22.803Z,16.82
2017-08-12T00:02:50.879Z,16.74
2017-08-12T00:03:18.961Z,16.73
2017-08-12T00:03:46.860Z,16.77
2017-08-12T00:04:15.131Z,16.76
2017-08-12T00:04:43.634Z,16.77
2017-08-12T00:05:11.627Z,16.72
2017-08-12T00:05:39.819Z,16.76
2017-08-12T00:06:07.986Z,16.82
2017-08-12T00:06:36.160Z,16.76
2017-08-12T00:07:04.325Z,16.8
2017-08-12T00:07:32.519Z,16.8
2017-08-12T00:08:00.866Z,16.84
2017-08-12T00:08:29.036Z,16.83
2017-08-12T00:08:57.128Z,16.87
2017-08-12T00:09:25.311Z,16.91
2017-08-12T00:09:53.283Z,16.86
2017-08-12T00:10:21.447Z,16.87
2017-08-12T00:10:49.619Z,16.86
2017-08-12T00:11:17.711Z,16.92
2017-08-12T00:11:45.811Z,16.86
2017-08-12T00:12:13.976Z,16.87
2017-08-12T00:12:42.132Z,16.91
2017-08-12T00:13:10.120Z,16.92
2017-08-12T00:13:38.297Z,16.89
2017-08-12T00:14:06.399Z,16.87
2017-08-12T00:14:34.564Z,16.99
2017-08-12T00:15:02.754Z,16.92
2017-08-12T00:15:30.910Z,16.97
2017-08-12T00:15:58.981Z,16.97
2017-08-12T00:16:27.063Z,16.99
2017-08-12T00:17:37.797Z,16.95
2017-08-12T00:18:05.876Z,16.95
2017-08-12T00:18:34.050Z,16.95
2017-08-12T00:19:02.219Z,16.87
2017-08-12T00:19:30.289Z,16.98
2017-08-12T00:19:58.356Z,16.97
2017-08-12T00:20:26.527Z,16.95
2017-08-12T00:20:54.598Z,16.92
2017-08-12T00:21:22.769Z,16.92
2017-08-12T00:21:50.864Z,16.92
2017-08-12T00:22:19.046Z,16.97
2017-08-12T00:22:47.156Z,17.01
2017-08-12T00:23:15.331Z,17.01
2017-08-12T00:23:43.310Z,16.99
2017-08-12T00:24:11.376Z,16.97
2017-08-12T00:24:39.571Z,17.01
2017-08-12T00:25:07.677Z,17.07
2017-08-12T00:25:35.861Z,17.12
2017-08-12T00:26:04.040Z,17.05
2017-08-12T00:26:32.123Z,16.99
2017-08-12T00:27:00.047Z,17.04
2017-08-12T00:27:28.110Z,17.02
2017-08-12T00:27:56.199Z,17.02
2017-08-12T00:28:24.353Z,17.02
2017-08-12T00:28:52.528Z,17.07
2017-08-12T00:29:20.693Z,17.07
2017-08-12T00:29:48.874Z,17.09
2017-08-12T00:30:16.754Z,17.05
2017-08-12T00:30:44.838Z,17.07
2017-08-12T00:31:13.252Z,17.02
2017-08-12T00:31:56.683Z,17.01
2017-08-12T00:32:24.729Z,16.98
2017-08-12T00:32:52.874Z,17.02
2017-08-12T00:33:21.049Z,17.05
2017-08-12T00:33:49.225Z,17.02
2017-08-12T00:34:17.302Z,17.02
2017-08-12T00:34:45.679Z,17.05
2017-08-12T00:35:13.765Z,17.05
2017-08-12T00:35:41.649Z,17.01
2017-08-12T00:36:09.827Z,17.1
2017-08-12T00:36:38.026Z,17.07
2017-08-12T00:37:06.014Z,17.01
2017-08-12T00:37:34.168Z,16.98
2017-08-12T00:38:02.340Z,17.02
2017-08-12T00:38:30.503Z,16.97
2017-08-12T00:38:58.577Z,16.98
2017-08-12T00:39:26.770Z,16.92
2017-08-12T00:39:54.933Z,16.95
2017-08-12T00:40:23.009Z,16.89
2017-08-12T00:40:51.178Z,16.87
2017-08-12T00:41:19.241Z,16.84
2017-08-12T00:41:47.542Z,16.83
2017-08-12T00:42:15.751Z,16.84
2017-08-12T00:42:43.820Z,16.77
2017-08-12T00:43:12.005Z,16.8
2017-08-12T00:43:40.121Z,16.84
2017-08-12T00:44:08.228Z,16.82
2017-08-12T00:44:36.307Z,16.87
2017-08-12T00:45:04.374Z,16.82
2017-08-12T00:45:32.444Z,16.91
2017-08-12T00:46:00.630Z,16.91
2017-08-12T00:46:28.713Z,16.87
2017-08-12T00:46:56.916Z,16.89
2017-08-12T00:47:25.103Z,16.87
2017-08-12T00:47:53.178Z,16.97
2017-08-12T00:48:22.017Z,16.87
2017-08-12T00:48:50.099Z,16.95
2017-08-12T00:49:18.265Z,16.98
2017-08-12T00:49:46.348Z,16.95
2017-08-12T00:50:14.416Z,16.98
2017-08-12T00:50:42.450Z,16.98
2017-08-12T00:51:10.425Z,16.89
2017-08-12T00:51:38.508Z,16.99
2017-08-12T00:52:06.693Z,16.94
2017-08-12T00:52:34.778Z,16.87
2017-08-12T00:53:02.767Z,16.87
2017-08-12T00:53:30.838Z,16.98
2017-08-12T00:53:58.921Z,16.91
2017-08-12T00:54:27.002Z,16.87
2017-08-12T00:54:55.212Z,16.92
2017-08-12T00:55:23.381Z,16.89
2017-08-12T00:55:51.549Z,16.84
2017-08-12T00:56:19.449Z,16.86
2017-08-12T00:56:47.612Z,16.89
2017-08-12T00:57:15.590Z,16.82
2017-08-12T00:57:43.740Z,16.86
2017-08-12T00:58:11.745Z,16.86
2017-08-12T00:58:39.924Z,16.87
2017-08-12T00:59:08.102Z,16.86
2017-08-12T00:59:36.190Z,16.89
2017-08-12T01:00:04.352Z,16.83
2017-08-12T01:00:32.428Z,16.83
2017-08-12T01:01:00.618Z,16.79
2017-08-12T01:01:28.689Z,16.82
2017-08-12T01:01:56.849Z,16.83
2017-08-12T01:02:25.009Z,16.86
2017-08-12T01:02:53.181Z,16.76
2017-08-12T01:03:21.360Z,16.84
2017-08-12T01:03:49.543Z,16.76
2017-08-12T01:04:17.614Z,16.82
2017-08-12T01:04:45.591Z,16.77
2017-08-12T01:05:13.746Z,16.79
2017-08-12T01:05:41.909Z,16.79
2017-08-12T01:06:09.981Z,16.79
2017-08-12T01:06:38.155Z,16.76
2017-08-12T01:07:06.321Z,16.84
2017-08-12T01:07:34.390Z,16.82
2017-08-12T01:08:02.557Z,16.76
2017-08-12T01:08:30.542Z,16.68
2017-08-12T01:08:58.622Z,16.8
2017-08-12T01:09:26.707Z,16.73
2017-08-12T01:09:54.779Z,16.72
2017-08-12T01:10:22.940Z,16.73
2017-08-12T01:10:51.124Z,16.69
2017-08-12T01:11:19.286Z,16.69
2017-08-12T01:11:47.367Z,16.65
2017-08-12T01:12:15.433Z,16.65
2017-08-12T01:12:43.595Z,16.65
2017-08-12T01:13:11.829Z,16.72
2017-08-12T01:13:39.984Z,16.72
2017-08-12T01:14:08.174Z,16.73
2017-08-12T01:14:36.066Z,16.76
2017-08-12T01:15:04.229Z,16.77
2017-08-12T01:15:32.385Z,16.68
2017-08-12T01:16:00.581Z,16.82
2017-08-12T01:16:28.744Z,16.82
2017-08-12T01:16:56.825Z,16.8
2017-08-12T01:17:24.906Z,16.82
2017-08-12T01:17:52.975Z,16.73
2017-08-12T01:18:21.172Z,16.76
2017-08-12T01:18:49.250Z,16.74
2017-08-12T01:19:17.412Z,16.84
2017-08-12T01:19:45.477Z,16.74
2017-08-12T01:20:13.655Z,16.76
2017-08-12T01:20:41.736Z,16.77
2017-08-12T01:21:09.897Z,16.77
2017-08-12T01:21:37.985Z,16.74
2017-08-12T01:22:06.154Z,16.74
2017-08-12T01:22:34.382Z,16.79
2017-08-12T01:23:02.542Z,16.73
2017-08-12T01:23:30.717Z,16.8
2017-08-12T01:23:58.890Z,16.77
2017-08-12T01:24:26.957Z,16.72
2017-08-12T01:24:55.044Z,16.79
2017-08-12T01:25:23.153Z,16.76
2017-08-12T01:25:51.233Z,16.76
2017-08-12T01:26:19.403Z,16.73
2017-08-12T01:26:47.559Z,16.68
2017-08-12T01:27:15.721Z,16.72
2017-08-12T01:27:43.793Z,16.77
2017-08-12T01:28:11.886Z,16.68
2017-08-12T01:28:40.045Z,16.74
2017-08-12T01:29:08.234Z,16.65
2017-08-12T01:29:36.429Z,16.68
2017-08-12T01:30:04.614Z,16.72
2017-08-12T01:30:32.764Z,16.68
2017-08-12T01:31:00.956Z,16.73
2017-08-12T01:31:29.014Z,16.72
2017-08-12T01:31:57.176Z,16.66
2017-08-12T01:32:25.347Z,16.68
2017-08-12T01:32:53.528Z,16.72
2017-08-12T01:33:21.697Z,16.72
2017-08-12T01:33:49.860Z,16.69
2017-08-12T01:34:17.931Z,16.65
2017-08-12T01:34:46.091Z,16.62
2017-08-12T01:35:14.179Z,16.59
2017-08-12T01:35:42.372Z,16.61
2017-08-12T01:36:10.582Z,16.57
2017-08-12T01:36:38.759Z,16.58
2017-08-12T01:37:06.926Z,16.55
2017-08-12T01:37:35.103Z,16.59
2017-08-12T01:38:03.272Z,16.62
2017-08-12T01:38:31.473Z,16.59
2017-08-12T01:38:59.575Z,16.66
2017-08-12T01:39:27.748Z,16.59
2017-08-12T01:39:55.917Z,16.59
2017-08-12T01:40:24.077Z,16.59
2017-08-12T01:40:52.178Z,16.64
2017-08-12T01:41:20.252Z,16.55
2017-08-12T01:41:48.414Z,16.59
2017-08-12T01:42:16.497Z,16.59
2017-08-12T01:42:44.684Z,16.59
2017-08-12T01:43:12.746Z,16.57
2017-08-12T01:43:40.876Z,16.58
2017-08-12T01:44:09.075Z,16.59
2017-08-12T01:44:37.243Z,16.57
2017-08-12T01:45:05.227Z,16.72
2017-08-12T01:45:33.201Z,16.61
2017-08-12T01:46:01.391Z,16.59
2017-08-12T01:46:29.560Z,16.65
2017-08-12T01:46:57.637Z,16.59
2017-08-12T01:47:25.809Z,16.62
2017-08-12T01:47:53.990Z,16.64
2017-08-12T01:48:21.955Z,16.64
2017-08-12T01:48:50.132Z,16.57
2017-08-12T01:49:18.310Z,16.62
2017-08-12T01:49:46.466Z,16.55
2017-08-12T01:50:14.629Z,16.59
2017-08-12T01:50:42.787Z,16.59
2017-08-12T01:51:10.877Z,16.61
2017-08-12T01:51:39.037Z,16.59
2017-08-12T01:52:07.193Z,16.62
2017-08-12T01:52:35.266Z,16.61
2017-08-12T01:53:03.430Z,16.57
2017-08-12T01:53:31.587Z,16.62
2017-08-12T01:53:59.663Z,16.58
2017-08-12T01:54:27.721Z,16.55
2017-08-12T01:54:55.817Z,16.57
2017-08-12T01:55:23.883Z,16.62
2017-08-12T01:55:51.953Z,16.61
2017-08-12T01:56:20.126Z,16.59
2017-08-12T01:56:48.191Z,16.61
2017-08-12T01:57:16.188Z,16.61
2017-08-12T01:57:44.363Z,16.61
2017-08-12T01:58:12.606Z,16.61
2017-08-12T01:58:40.682Z,16.65
2017-08-12T01:59:08.852Z,16.64
2017-08-12T01:59:36.856Z,16.57
2017-08-12T02:00:05.038Z,16.58
2017-08-12T02:00:33.213Z,16.59
2017-08-12T02:01:01.565Z,16.54
2017-08-12T02:01:29.750Z,16.49
2017-08-12T02:01:57.913Z,16.49
2017-08-12T02:02:25.985Z,16.59
2017-08-12T02:02:53.969Z,16.51
2017-08-12T02:03:21.952Z,16.51
2017-08-12T02:03:50.138Z,16.46
2017-08-12T02:04:18.133Z,16.46
2017-08-12T02:04:46.309Z,16.46
2017-08-12T02:05:14.205Z,16.44
2017-08-12T02:05:42.374Z,16.49
2017-08-12T02:06:10.447Z,16.36
2017-08-12T02:06:38.654Z,16.36
2017-08-12T02:07:06.824Z,16.41
2017-08-12T02:07:34.983Z,16.44
2017-08-12T02:08:03.173Z,16.49
2017-08-12T02:08:31.240Z,16.44
2017-08-12T02:08:59.307Z,16.43
2017-08-12T02:09:27.280Z,16.43
2017-08-12T02:09:55.430Z,16.46
2017-08-12T02:10:23.495Z,16.46
2017-08-12T02:10:51.701Z,16.47
2017-08-12T02:11:19.869Z,16.43
2017-08-12T02:11:48.032Z,16.32
2017-08-12T02:12:16.204Z,16.32
2017-08-12T02:12:44.271Z,16.34
2017-08-12T02:13:12.353Z,16.32
2017-08-12T02:13:40.335Z,16.36
2017-08-12T02:14:08.520Z,16.26
2017-08-12T02:14:36.404Z,16.29
2017-08-12T02:15:04.478Z,16.25
2017-08-12T02:15:32.640Z,16.21
2017-08-12T02:16:00.836Z,16.24
2017-08-12T02:16:28.846Z,16.26
2017-08-12T02:16:57.008Z,16.29
2017-08-12T02:17:25.191Z,16.25
2017-08-12T02:17:53.353Z,16.21
2017-08-12T02:18:21.536Z,16.28
2017-08-12T02:18:49.620Z,16.25
2017-08-12T02:19:17.715Z,16.26
2017-08-12T02:19:45.861Z,16.26
2017-08-12T02:20:14.803Z,16.31
2017-08-12T02:20:42.918Z,16.32
2017-08-12T02:21:11.077Z,16.29
2017-08-12T02:21:39.234Z,16.37
2017-08-12T02:22:07.460Z,16.46
2017-08-12T02:22:35.530Z,16.36
2017-08-12T02:23:03.698Z,16.36
2017-08-12T02:23:31.789Z,16.39
2017-08-12T02:23:59.881Z,16.47
2017-08-12T02:24:28.040Z,16.5
2017-08-12T02:24:56.101Z,16.46
2017-08-12T02:25:24.169Z,16.47
2017-08-12T02:25:52.329Z,16.44
2017-08-12T02:26:20.492Z,16.28
2017-08-12T02:26:48.475Z,16.47
2017-08-12T02:27:16.628Z,16.47
2017-08-12T02:27:44.725Z,16.36
2017-08-12T02:28:12.957Z,16.44
2017-08-12T02:28:41.002Z,16.44
2017-08-12T02:29:09.176Z,16.47
2017-08-12T02:29:37.342Z,16.44
2017-08-12T02:30:05.517Z,16.37
2017-08-12T02:30:33.681Z,16.4
2017-08-12T02:31:01.865Z,16.43
2017-08-12T02:31:30.018Z,16.31
2017-08-12T02:31:58.293Z,16.43
2017-08-12T02:32:26.460Z,16.4
2017-08-12T02:32:54.441Z,16.43
2017-08-12T02:33:22.509Z,16.29
2017-08-12T02:33:50.581Z,16.41
2017-08-12T02:34:18.748Z,16.29
2017-08-12T02:34:46.659Z,16.29
2017-08-12T02:35:14.732Z,16.31
2017-08-12T02:35:42.817Z,16.34
2017-08-12T02:36:10.992Z,16.28
2017-08-12T02:36:39.157Z,16.29
2017-08-12T02:37:07.341Z,16.36
2017-08-12T02:37:35.508Z,16.34
2017-08-12T02:38:03.668Z,16.31
2017-08-12T02:38:31.733Z,16.31
2017-08-12T02:38:59.886Z,16.26
2017-08-12T02:39:28.044Z,16.31
2017-08-12T02:39:56.206Z,16.31
2017-08-12T02:40:24.394Z,16.31
2017-08-12T02:40:52.468Z,16.37
2017-08-12T02:41:20.629Z,16.31
2017-08-12T02:41:48.622Z,16.26
2017-08-12T02:42:16.777Z,16.28
2017-08-12T02:42:44.936Z,16.22
2017-08-12T02:43:13.115Z,16.22
2017-08-12T02:43:41.227Z,16.28
2017-08-12T02:44:09.377Z,16.28
2017-08-12T02:44:37.360Z,16.21
2017-08-12T02:45:05.422Z,16.16
2017-08-12T02:45:33.583Z,16.25
2017-08-12T02:46:01.679Z,16.09
2017-08-12T02:46:29.754Z,16.16
2017-08-12T02:46:57.933Z,16.16
2017-08-12T02:47:26.095Z,16.16
2017-08-12T02:47:54.173Z,16.13
2017-08-12T02:48:22.053Z,16.25
2017-08-12T02:48:50.115Z,16.13
2017-08-12T02:49:18.099Z,16.12
2017-08-12T02:49:46.279Z,16.12
2017-08-12T02:50:14.446Z,16.12
2017-08-12T02:50:42.506Z,16.12
2017-08-12T02:51:10.584Z,16.13
2017-08-12T02:51:38.764Z,16.25
2017-08-12T02:52:06.838Z,16.1
2017-08-12T02:52:34.896Z,16.22
2017-08-12T02:53:03.056Z,16.12
2017-08-12T02:53:31.115Z,16.1
2017-08-12T02:53:59.267Z,16.08
2017-08-12T02:54:27.347Z,16.06
2017-08-12T02:54:55.514Z,16.13
2017-08-12T02:55:23.504Z,16.12
2017-08-12T02:55:51.581Z,16.08
2017-08-12T02:56:19.480Z,16.1
2017-08-12T02:56:47.647Z,16
2017-08-12T02:57:15.858Z,16.06
2017-08-12T02:57:43.828Z,16.02
2017-08-12T02:58:11.902Z,15.96
2017-08-12T02:58:40.062Z,15.96
2017-08-12T02:59:08.143Z,15.94
2017-08-12T02:59:36.332Z,15.91
2017-08-12T03:00:04.497Z,15.88
2017-08-12T03:00:32.702Z,15.9
2017-08-12T03:01:00.776Z,15.83
2017-08-12T03:01:28.868Z,15.84
2017-08-12T03:01:57.029Z,15.75
2017-08-12T03:02:25.181Z,15.81
2017-08-12T03:02:53.348Z,15.73
2017-08-12T03:03:21.509Z,15.81
2017-08-12T03:03:49.761Z,15.72
2017-08-12T03:04:17.827Z,15.84
2017-08-12T03:04:45.988Z,15.78
2017-08-12T03:05:14.049Z,15.76
2017-08-12T03:05:42.211Z,15.73
2017-08-12T03:06:10.275Z,15.81
2017-08-12T03:06:38.435Z,15.76
2017-08-12T03:07:06.776Z,15.7
2017-08-12T03:07:35.004Z,15.72
2017-08-12T03:08:02.995Z,15.75
2017-08-12T03:08:30.972Z,15.73
2017-08-12T03:08:59.129Z,15.62
2017-08-12T03:09:27.194Z,15.73
2017-08-12T03:09:55.261Z,15.75
2017-08-12T03:10:23.355Z,15.72
2017-08-12T03:10:51.538Z,15.72
2017-08-12T03:11:19.714Z,15.63
2017-08-12T03:11:47.891Z,15.67
2017-08-12T03:12:15.953Z,15.69
2017-08-12T03:12:44.110Z,15.72
2017-08-12T03:13:12.274Z,15.76
2017-08-12T03:13:40.426Z,15.73
2017-08-12T03:14:08.496Z,15.76
2017-08-12T03:14:36.573Z,15.75
2017-08-12T03:15:04.757Z,15.78
2017-08-12T03:15:32.820Z,15.81
2017-08-12T03:16:00.983Z,15.72
2017-08-12T03:16:28.960Z,15.7
2017-08-12T03:16:57.121Z,15.75
2017-08-12T03:17:25.277Z,15.78
2017-08-12T03:17:53.439Z,15.76
2017-08-12T03:18:21.614Z,15.76
2017-08-12T03:18:49.793Z,15.84
2017-08-12T03:19:17.865Z,15.69
2017-08-12T03:19:45.959Z,15.78
2017-08-12T03:20:14.129Z,15.73
2017-08-12T03:20:42.188Z,15.73
2017-08-12T03:21:10.365Z,15.8
2017-08-12T03:21:53.030Z,15.73
2017-08-12T03:22:21.107Z,15.73
2017-08-12T03:22:49.087Z,15.62
2017-08-12T03:23:17.256Z,15.65
2017-08-12T03:23:45.438Z,15.73
2017-08-12T03:24:13.618Z,15.78
2017-08-12T03:24:41.953Z,15.7
2017-08-12T03:25:10.138Z,15.69
2017-08-12T03:25:38.322Z,15.7
2017-08-12T03:26:06.478Z,15.76
2017-08-12T03:26:34.360Z,15.67
2017-08-12T03:27:02.538Z,15.73
2017-08-12T03:27:30.610Z,15.66
2017-08-12T03:27:58.685Z,15.7
2017-08-12T03:28:26.769Z,15.73
2017-08-12T03:28:54.934Z,15.73
2017-08-12T03:29:22.999Z,15.73
2017-08-12T03:29:51.213Z,15.69
2017-08-12T03:30:19.290Z,15.75
2017-08-12T03:30:47.448Z,15.67
2017-08-12T03:31:15.616Z,15.75
2017-08-12T03:31:43.621Z,15.73
2017-08-12T03:32:11.780Z,15.75
2017-08-12T03:32:39.770Z,15.73
2017-08-12T03:33:07.935Z,15.72
2017-08-12T03:33:36.113Z,15.72
2017-08-12T03:34:04.201Z,15.73
2017-08-12T03:34:32.357Z,15.76
2017-08-12T03:35:00.336Z,15.76
2017-08-12T03:35:28.501Z,15.69
2017-08-12T03:35:56.569Z,15.7
2017-08-12T03:36:24.610Z,15.78
2017-08-12T03:36:52.764Z,15.8
2017-08-12T03:37:20.926Z,15.73
2017-08-12T03:37:49.115Z,15.72
2017-08-12T03:38:17.208Z,15.78
2017-08-12T03:38:45.401Z,15.76
2017-08-12T03:39:13.587Z,15.69
2017-08-12T03:39:41.682Z,15.73
2017-08-12T03:40:09.826Z,15.8
2017-08-12T03:40:38.174Z,15.78
2017-08-12T03:41:06.505Z,15.73
2017-08-12T03:41:34.635Z,15.73
2017-08-12T03:42:02.722Z,15.73
2017-08-12T03:42:30.785Z,15.75
2017-08-12T03:42:58.947Z,15.78
2017-08-12T03:43:27.110Z,15.78
2017-08-12T03:43:55.282Z,15.76
2017-08-12T03:44:23.269Z,15.84
2017-08-12T03:44:51.428Z,15.78
2017-08-12T03:45:19.593Z,15.75
2017-08-12T03:45:47.684Z,15.7
2017-08-12T03:46:15.841Z,15.78
2017-08-12T03:46:43.997Z,15.72
2017-08-12T03:47:11.999Z,15.75
2017-08-12T03:47:40.077Z,15.76
2017-08-12T03:48:08.147Z,15.76
2017-08-12T03:48:36.331Z,15.76
2017-08-12T03:49:04.490Z,15.73
2017-08-12T03:49:32.669Z,15.7
2017-08-12T03:50:00.724Z,15.73
2017-08-12T03:50:28.801Z,15.72
2017-08-12T03:50:56.959Z,15.72
2017-08-12T03:51:25.123Z,15.72
2017-08-12T03:51:53.286Z,15.72
2017-08-12T03:52:21.457Z,15.75
2017-08-12T03:52:49.613Z,15.72
2017-08-12T03:53:17.773Z,15.78
2017-08-12T03:53:45.944Z,15.83
2017-08-12T03:54:14.022Z,15.83
2017-08-12T03:54:42.184Z,15.84
2017-08-12T03:55:10.353Z,15.83
2017-08-12T03:55:38.525Z,15.88
2017-08-12T03:56:06.592Z,15.81
2017-08-12T03:56:34.662Z,15.78
2017-08-12T03:57:02.827Z,15.84
2017-08-12T03:57:30.812Z,15.84
2017-08-12T03:57:58.888Z,15.96
2017-08-12T03:58:27.066Z,16
2017-08-12T03:58:55.239Z,15.9
2017-08-12T03:59:23.406Z,15.9
2017-08-12T03:59:51.557Z,15.96
2017-08-12T04:00:19.630Z,15.9
2017-08-12T04:00:47.720Z,15.92
2017-08-12T04:01:15.887Z,15.96
2017-08-12T04:01:44.055Z,16
2017-08-12T04:02:12.119Z,16.02
2017-08-12T04:02:40.288Z,15.99
2017-08-12T04:03:08.502Z,16.05
2017-08-12T04:03:36.664Z,16
2017-08-12T04:04:04.838Z,16.08
2017-08-12T04:04:32.995Z,16
2017-08-12T04:05:01.072Z,15.99
2017-08-12T04:05:29.235Z,15.94
2017-08-12T04:05:57.394Z,15.99
2017-08-12T04:06:25.556Z,16.05
2017-08-12T04:06:53.742Z,16.05
2017-08-12T04:07:21.888Z,16.02
2017-08-12T04:07:49.951Z,16.02
2017-08-12T04:08:18.019Z,16.05
2017-08-12T04:08:46.192Z,15.98
2017-08-12T04:09:14.368Z,16.03
2017-08-12T04:09:42.448Z,16.06
2017-08-12T04:10:10.620Z,16
2017-08-12T04:10:38.781Z,16.03
2017-08-12T04:11:06.936Z,16
2017-08-12T04:11:35.000Z,16.03
2017-08-12T04:12:03.160Z,16.05
2017-08-12T04:12:31.324Z,16.03
2017-08-12T04:12:59.212Z,16.06
2017-08-12T04:13:27.297Z,15.98
2017-08-12T04:13:55.474Z,16.05
2017-08-12T04:14:23.478Z,16.05
2017-08-12T04:14:51.639Z,16.02
2017-08-12T04:15:19.716Z,15.99
2017-08-12T04:15:47.876Z,15.98
2017-08-12T04:16:15.948Z,15.99
2017-08-12T04:16:43.929Z,16.03
2017-08-12T04:17:12.089Z,16
2017-08-12T04:17:40.245Z,16.02
2017-08-12T04:18:08.411Z,16.02
2017-08-12T04:18:36.576Z,16
2017-08-12T04:19:04.731Z,16.03
2017-08-12T04:19:32.795Z,15.99
2017-08-12T04:20:00.785Z,16.02
2017-08-12T04:20:28.857Z,15.94
2017-08-12T04:20:57.017Z,16.02
2017-08-12T04:21:25.211Z,15.99
2017-08-12T04:21:53.471Z,15.99
2017-08-12T04:22:21.563Z,16.06
2017-08-12T04:22:49.721Z,16.08
2017-08-12T04:23:17.791Z,15.99
2017-08-12T04:23:45.967Z,15.98
2017-08-12T04:24:14.126Z,15.99
2017-08-12T04:24:42.118Z,16
2017-08-12T04:25:10.090Z,16
2017-08-12T04:26:21.459Z,16
2017-08-12T04:26:49.440Z,16.03
2017-08-12T04:27:17.527Z,16.03
2017-08-12T04:27:45.690Z,16.02
2017-08-12T04:28:14.004Z,15.99
2017-08-12T04:28:42.212Z,15.96
2017-08-12T04:29:10.360Z,16
2017-08-12T04:29:38.429Z,15.99
2017-08-12T04:30:06.408Z,15.94
2017-08-12T04:30:34.495Z,16.02
2017-08-12T04:31:02.691Z,16.03
2017-08-12T04:31:30.856Z,16
2017-08-12T04:31:58.934Z,16.03
2017-08-12T04:32:27.085Z,16.03
2017-08-12T04:32:55.242Z,16.03
2017-08-12T04:33:23.398Z,16.02
2017-08-12T04:33:51.563Z,16.02
2017-08-12T04:34:19.729Z,16.06
2017-08-12T04:34:47.881Z,16.05
2017-08-12T04:35:16.010Z,16.05
2017-08-12T04:35:44.155Z,16.06
2017-08-12T04:36:12.312Z,16.06
2017-08-12T04:36:40.479Z,16.1
2017-08-12T04:37:08.547Z,16.1
2017-08-12T04:37:36.719Z,16.08
2017-08-12T04:38:04.884Z,16.08
2017-08-12T04:38:33.245Z,16.1
2017-08-12T04:39:01.408Z,16.1
2017-08-12T04:39:29.572Z,16.17
2017-08-12T04:39:57.643Z,16.16
2017-08-12T04:40:25.713Z,16.12
2017-08-12T04:40:53.843Z,16.12
2017-08-12T04:41:22.001Z,16.08
2017-08-12T04:41:50.011Z,16.12
2017-08-12T04:42:18.144Z,16.22
2017-08-12T04:42:46.265Z,16.13
2017-08-12T04:43:14.407Z,16.25
2017-08-12T04:43:42.514Z,16.17
2017-08-12T04:44:10.564Z,16.16
2017-08-12T04:44:38.592Z,16.24
2017-08-12T04:45:06.600Z,16.08
2017-08-12T04:45:34.724Z,16.1
2017-08-12T04:46:02.858Z,16.21
2017-08-12T04:46:30.895Z,16.12
2017-08-12T04:46:59.025Z,16.24
2017-08-12T04:47:27.147Z,16.18
2017-08-12T04:47:55.159Z,16.26
2017-08-12T04:48:23.275Z,16.17
2017-08-12T04:48:51.202Z,16.13
2017-08-12T04:49:19.326Z,16.16
2017-08-12T04:49:47.436Z,16.18
2017-08-12T04:50:15.557Z,16.21
2017-08-12T04:50:43.675Z,16.25
2017-08-12T04:51:11.710Z,16.17
2017-08-12T04:51:39.753Z,16.13
2017-08-12T04:52:07.806Z,16.06
2017-08-12T04:52:35.960Z,16
2017-08-12T04:53:04.094Z,16.02
2017-08-12T04:53:32.212Z,16.02
2017-08-12T04:54:00.325Z,16.02
2017-08-12T04:54:28.464Z,16.02
2017-08-12T04:54:56.498Z,15.99
2017-08-12T04:55:24.615Z,15.92
2017-08-12T04:55:52.751Z,15.9
2017-08-12T04:56:20.805Z,15.91
2017-08-12T04:56:48.836Z,16
2017-08-12T04:57:16.955Z,16.02
2017-08-12T04:57:45.097Z,15.94
2017-08-12T04:58:13.034Z,16.06
2017-08-12T04:58:41.082Z,16
2017-08-12T04:59:09.124Z,16.02
2017-08-12T04:59:37.070Z,16.08
2017-08-12T05:00:05.214Z,16.03
2017-08-12T05:00:33.367Z,15.98
2017-08-12T05:01:01.322Z,16
2017-08-12T05:01:29.365Z,16.02
2017-08-12T05:01:57.384Z,16.02
2017-08-12T05:02:25.501Z,16.02
2017-08-12T05:02:53.426Z,15.98
2017-08-12T05:03:21.527Z,16
2017-08-12T05:03:49.390Z,16.02
2017-08-12T05:04:17.440Z,15.99
2017-08-12T05:04:45.480Z,16
2017-08-12T05:05:13.678Z,16
2017-08-12T05:05:41.820Z,16.05
2017-08-12T05:06:09.937Z,16
2017-08-12T05:06:38.079Z,15.99
2017-08-12T05:07:06.187Z,16.08
2017-08-12T05:07:34.321Z,16.03
2017-08-12T05:08:02.492Z,16
2017-08-12T05:08:30.617Z,16.02
2017-08-12T05:08:58.543Z,15.99
2017-08-12T05:09:26.523Z,16.02
2017-08-12T05:09:54.596Z,16.02
2017-08-12T05:10:22.824Z,16.08
2017-08-12T05:10:50.881Z,16.12
2017-08-12T05:11:19.010Z,16
2017-08-12T05:11:47.203Z,16.05
2017-08-12T05:12:15.411Z,16.09
2017-08-12T05:12:43.452Z,16.02
2017-08-12T05:13:11.786Z,16.06
2017-08-12T05:13:39.832Z,16.06
2017-08-12T05:14:07.887Z,16.08
2017-08-12T05:14:36.121Z,16.09
2017-08-12T05:15:04.262Z,16.09
2017-08-12T05:15:32.721Z,16.16
2017-08-12T05:16:00.552Z,16.1
2017-08-12T05:16:28.595Z,16.09
2017-08-12T05:16:56.869Z,16.13
2017-08-12T05:17:25.105Z,16.13
2017-08-12T05:17:53.218Z,16.24
2017-08-12T05:18:21.260Z,16.16
2017-08-12T05:18:49.301Z,16.13
2017-08-12T05:19:17.446Z,16.18
2017-08-12T05:19:45.483Z,16.1
2017-08-12T05:20:13.715Z,16.09
2017-08-12T05:20:42.122Z,16.05
2017-08-12T05:21:10.453Z,16.09
2017-08-12T05:21:38.778Z,16
2017-08-12T05:22:06.893Z,16
2017-08-12T05:22:34.947Z,15.99
2017-08-12T05:23:04.232Z,16.12
2017-08-12T05:23:32.599Z,16.13
2017-08-12T05:24:00.645Z,16.08
2017-08-12T05:24:28.718Z,16.1
2017-08-12T05:24:56.857Z,15.99
2017-08-12T05:25:25.215Z,16.02
2017-08-12T05:25:53.350Z,16
2017-08-12T05:26:21.450Z,15.98
2017-08-12T05:26:49.470Z,15.9
2017-08-12T05:27:17.737Z,15.91
2017-08-12T05:27:45.903Z,15.85
2017-08-12T05:28:14.279Z,15.85
2017-08-12T05:28:42.325Z,15.84
2017-08-12T05:29:10.472Z,15.81
2017-08-12T05:29:38.592Z,15.81
2017-08-12T05:30:06.603Z,15.83
2017-08-12T05:30:34.717Z,15.83
2017-08-12T05:31:02.790Z,15.76
2017-08-12T05:31:30.928Z,15.76
2017-08-12T05:31:59.051Z,15.73
2017-08-12T05:32:27.193Z,15.78
2017-08-12T05:32:55.240Z,15.81
2017-08-12T05:33:23.161Z,15.83
2017-08-12T05:33:51.096Z,15.84
2017-08-12T05:34:19.122Z,15.81
2017-08-12T05:34:47.281Z,15.81
2017-08-12T05:35:15.388Z,15.84
2017-08-12T05:35:43.387Z,15.76
2017-08-12T05:36:11.501Z,15.78
2017-08-12T05:36:39.479Z,15.84
2017-08-12T05:37:07.632Z,15.87
2017-08-12T05:37:35.662Z,15.85
2017-08-12T05:38:03.729Z,15.92
2017-08-12T05:38:31.758Z,15.84
2017-08-12T05:38:59.873Z,15.85
2017-08-12T05:39:27.919Z,15.81
2017-08-12T05:39:55.948Z,15.85
2017-08-12T05:40:23.977Z,15.83
2017-08-12T05:40:52.152Z,15.81
2017-08-12T05:41:20.210Z,15.84
2017-08-12T05:41:48.319Z,15.83
2017-08-12T05:42:16.434Z,15.72
2017-08-12T05:42:44.439Z,15.81
2017-08-12T05:43:12.559Z,15.72
2017-08-12T05:43:40.666Z,15.73
2017-08-12T05:44:08.719Z,15.8
2017-08-12T05:44:36.874Z,15.76
2017-08-12T05:45:05.000Z,15.78
2017-08-12T05:45:33.141Z,15.76
2017-08-12T05:46:01.197Z,15.73
2017-08-12T05:46:29.207Z,15.69
2017-08-12T05:46:57.358Z,15.67
2017-08-12T05:47:25.479Z,15.73
2017-08-12T05:47:53.604Z,15.76
2017-08-12T05:48:21.623Z,15.76
2017-08-12T05:48:49.671Z,15.7
2017-08-12T05:49:17.812Z,15.72
2017-08-12T05:49:45.952Z,15.78
2017-08-12T05:50:13.962Z,15.75
2017-08-12T05:50:42.085Z,15.76
2017-08-12T05:51:10.220Z,15.69
2017-08-12T05:51:38.371Z,15.65
2017-08-12T05:52:06.334Z,15.63
2017-08-12T05:52:34.361Z,15.69
2017-08-12T05:53:02.455Z,15.7
2017-08-12T05:53:30.596Z,15.7
2017-08-12T05:53:58.627Z,15.69
2017-08-12T05:54:26.669Z,15.62
2017-08-12T05:54:54.795Z,15.72
2017-08-12T05:55:22.826Z,15.7
2017-08-12T05:55:50.973Z,15.63
2017-08-12T05:56:19.104Z,15.63
2017-08-12T05:56:47.153Z,15.59
2017-08-12T05:57:15.309Z,15.69
2017-08-12T05:57:43.442Z,15.67
2017-08-12T05:58:11.602Z,15.62
2017-08-12T05:58:39.787Z,15.55
2017-08-12T05:59:07.903Z,15.52
2017-08-12T05:59:36.039Z,15.55
2017-08-12T06:00:04.189Z,15.57
2017-08-12T06:00:32.325Z,15.57
2017-08-12T06:01:00.503Z,15.54
2017-08-12T06:01:28.649Z,15.51
2017-08-12T06:01:56.767Z,15.54
2017-08-12T06:02:24.892Z,15.5
2017-08-12T06:02:52.925Z,15.45
2017-08-12T06:03:21.648Z,15.5
2017-08-12T06:03:49.561Z,15.5
2017-08-12T06:04:17.703Z,15.48
2017-08-12T06:04:45.817Z,15.39
2017-08-12T06:05:13.950Z,15.45
2017-08-12T06:05:42.065Z,15.41